createdAt,value
2017-06-08T00:00:12.535Z,16.37
2017-06-08T00:02:36.206Z,16.29
2017-06-08T00:04:59.879Z,16.29
2017-06-08T00:07:15.152Z,16.37
2017-06-08T00:09:30.428Z,16.25
2017-06-08T00:11:54.099Z,16.22
2017-06-08T00:14:17.773Z,16.05
2017-06-08T00:16:33.049Z,16.09
2017-06-08T00:18:48.323Z,16.09
2017-06-08T00:21:11.996Z,16.1
2017-06-08T00:23:22.280Z,16.16
2017-06-08T00:25:46.027Z,15.98
2017-06-08T00:28:09.697Z,16.03
2017-06-08T00:30:33.371Z,16.08
2017-06-08T00:32:57.043Z,16.13
2017-06-08T00:35:20.718Z,16.16
2017-06-08T00:37:44.387Z,15.96
2017-06-08T00:40:08.062Z,15.9
2017-06-08T00:42:09.817Z,16
2017-06-08T00:44:33.493Z,16.08
2017-06-08T00:46:57.163Z,16.02
2017-06-08T00:49:20.838Z,16.16
2017-06-08T00:51:44.509Z,16
2017-06-08T00:53:45.883Z,16.09
2017-06-08T00:56:09.550Z,16.12
2017-06-08T00:58:24.835Z,16.05
2017-06-08T01:00:48.479Z,16
2017-06-08T01:03:03.749Z,16.08
2017-06-08T01:05:19.028Z,16.1
2017-06-08T01:07:42.702Z,15.99
2017-06-08T01:10:06.370Z,15.9
2017-06-08T01:12:30.044Z,15.99
2017-06-08T01:14:53.715Z,15.84
2017-06-08T01:17:17.391Z,15.8
2017-06-08T01:19:41.060Z,15.81
2017-06-08T01:21:56.339Z,15.76
2017-06-08T01:24:20.009Z,15.66
2017-06-08T01:26:21.256Z,15.84
2017-06-08T01:28:44.926Z,15.69
2017-06-08T01:31:00.199Z,15.8
2017-06-08T01:33:23.876Z,15.67
2017-06-08T01:35:47.547Z,15.73
2017-06-08T01:38:11.218Z,15.83
2017-06-08T01:40:12.486Z,15.76
2017-06-08T01:42:36.138Z,15.84
2017-06-08T01:44:59.816Z,15.85
2017-06-08T01:47:23.482Z,15.72
2017-06-08T01:49:47.158Z,15.8
2017-06-08T01:52:10.823Z,15.78
2017-06-08T01:54:26.101Z,15.75
2017-06-08T01:56:49.777Z,15.81
2017-06-08T01:59:13.461Z,15.76
2017-06-08T02:01:28.726Z,15.65
2017-06-08T02:03:52.393Z,15.73
2017-06-08T02:06:15.961Z,15.69
2017-06-08T02:08:39.634Z,15.75
2017-06-08T02:11:03.311Z,15.75
2017-06-08T02:13:26.979Z,15.78
2017-06-08T02:15:50.653Z,15.7
2017-06-08T02:18:14.323Z,15.65
2017-06-08T02:20:37.998Z,15.7
2017-06-08T02:22:53.285Z,15.65
2017-06-08T02:25:16.948Z,15.63
2017-06-08T02:27:40.614Z,15.6
2017-06-08T02:30:04.289Z,15.51
2017-06-08T02:32:05.543Z,15.55
2017-06-08T02:34:29.210Z,15.66
2017-06-08T02:36:52.886Z,15.55
2017-06-08T02:39:16.554Z,15.7
2017-06-08T02:41:17.823Z,15.67
2017-06-08T02:43:41.478Z,15.7
2017-06-08T02:46:05.144Z,15.66
2017-06-08T02:48:28.816Z,15.55
2017-06-08T02:50:52.486Z,15.6
2017-06-08T02:53:16.045Z,15.57
2017-06-08T02:55:39.626Z,15.5
2017-06-08T02:58:03.297Z,15.63
2017-06-08T03:00:26.869Z,15.67
2017-06-08T03:02:50.544Z,15.52
2017-06-08T03:05:14.217Z,15.55
2017-06-08T03:07:24.498Z,15.63
2017-06-08T03:09:48.145Z,15.51
2017-06-08T03:11:58.364Z,15.54
2017-06-08T03:14:21.968Z,15.65
2017-06-08T03:16:37.142Z,15.55
2017-06-08T03:19:00.817Z,15.65
2017-06-08T03:21:24.487Z,15.65
2017-06-08T03:23:48.161Z,15.52
2017-06-08T03:26:03.331Z,15.7
2017-06-08T03:28:14.352Z,15.63
2017-06-08T03:30:40.916Z,15.52
2017-06-08T03:32:42.220Z,15.65
2017-06-08T03:35:05.865Z,15.57
2017-06-08T03:37:29.540Z,15.65
2017-06-08T03:39:53.110Z,15.51
2017-06-08T03:42:08.285Z,15.59
2017-06-08T03:44:31.955Z,15.69
2017-06-08T03:46:47.230Z,15.78
2017-06-08T03:48:45.630Z,15.63
2017-06-08T03:51:00.784Z,15.75
2017-06-08T03:53:24.454Z,15.84
2017-06-08T03:55:39.731Z,16.1
2017-06-08T03:58:03.298Z,16.25
2017-06-08T04:00:18.575Z,16.31
2017-06-08T04:02:20.333Z,16.39
2017-06-08T04:04:44.006Z,16.46
2017-06-08T04:07:07.676Z,16.66
2017-06-08T04:09:31.351Z,16.95
2017-06-08T04:11:55.022Z,17.07
2017-06-08T04:14:18.698Z,17.22
2017-06-08T04:16:33.967Z,17.49
2017-06-08T04:18:57.640Z,17.72
2017-06-08T04:21:21.414Z,19.67
